Aérodrome :
LOGIN :

S'inscrire | Disclaimer

   EN    FR    IT 

 










Légende :    VFR   VFR Marginal   IFR   IFR Intensif   IFR Très Intensif
Visi : 
Plafond : 
>= 8 km
>= 3000ft
5 à 8 km
1000 à 3000 ft
1500m à 5 km
500 à 1000 ft
800 à 1500m
200 à 500 ft
< 800m
< 200 ft
Symboles :   Orages  Brouillard  Fortes neiges  Fortes précipitations  Vent > 20 kt
SIGMETs :   Divers  Orages  Givrage  Turbulence  Onde Orograph.  Cendres Volcan.







- Altitude de l'aérodrome : 313 ft
- Code IATA : LEH
- Voir les cartes d'approche


LFOH - Le Havre Octeville

DERNIER METAR :
  • 211700Z AUTO 27007KT 9999 BKN008 OVC054 16/14 Q1017 TEMPO 3000 DZRA

METARs EXPIRÉS :
  • 211630Z AUTO 27008KT 9999 FEW013 OVC054 17/14 Q1017 TEMPO 3000 DZRA BKN005 OVC013
  • 211600Z AUTO 27006KT 9999 FEW044 SCT054 BKN240 17/13 Q1017 TEMPO 3000 DZRA BKN005 OVC013
  • 211530Z AUTO 28007KT 250V320 9999 FEW018 SCT046 17/14 Q1017 TEMPO 3000 DZRA BKN005 OVC013
  • 211500Z AUTO 20007KT 160V220 9999 FEW046 SCT084 19/10 Q1017 NOSIG
  • 211430Z AUTO 19007KT 150V220 CAVOK 20/10 Q1017 NOSIG

TAF TAF LFOH
Valide du 21 à 12h jusqu'au 22 à 12h UTC


211100Z 2112/2212 13006KT CAVOK
TEMPO 2117/2122 3000 DZRA BKN005 OVC013
BECMG 2122/2124 BKN020
ATIS : +33 2 35 54 64 93
Pas de NOTAMs connus pour ce terrain.



MET'MAP, la Météo Aéronautique d'un coup d'oeil ! - Copyright ORBIFLY Décembre 2007 - Disclaimer

ORBIFLY MET'MAP TEAM :

Programmation & Développement : Alexandra Zaïnal
Conception & Développement : Baudouin d'Aumeries
Co-Programmation & Développement : Marc-Olivier Méhu
Soutien technique & logistique : Manuel Goepfert

Contact : metmap@orbifly.com




SOURCES & CREDITS :

   NOAA